Time;durP1;ratioP1;P1;durP2;ratioP2;P2;SDS_P1;SDS_P2;PMS_P1;PMS_P2;Temp;Humidity;BMP_temperature;BMP_pressure;BME280_temperature;BME280_humidity;BME280_pressure;Samples;Min_cycle;Max_cycle;Signal;HPM_P1;HPM_P2
2023/07/25 05:49:37;;;;;;;4.07;2.47;;;;;;;;;;10516190;28;20471;-82
2023/07/25 05:54:49;;;;;;;3.88;2.00;;;;;;;;;;10513550;28;20035;-82
2023/07/25 06:05:30;;;;;;;5.15;1.90;;;;;;;;;;10504900;28;20116;-83
2023/07/25 06:10:38;;;;;;;11.55;2.50;;;;;;;;;;10504026;28;20060;-83
2023/07/25 06:16:17;;;;;;;5.28;1.63;;;;;;;;;;10517685;28;20025;-83
2023/07/25 06:21:40;;;;;;;4.65;2.00;;;;;;;;;;10509284;28;20087;-83
2023/07/25 06:26:50;;;;;;;2.90;1.50;;;;;;;;;;10507022;28;20086;-84
2023/07/25 06:31:55;;;;;;;4.32;1.60;;;;;;;;;;10525116;28;20033;-84
2023/07/25 06:37:20;;;;;;;7.90;1.90;;;;;;;;;;10502308;28;20467;-83
2023/07/25 06:42:57;;;;;;;3.00;1.40;;;;;;;;;;10484161;28;20132;-85
2023/07/25 06:48:10;;;;;;;4.55;1.50;;;;;;;;;;10488137;28;20080;-85
2023/07/25 06:53:34;;;;;;;3.95;2.08;;;;;;;;;;10487603;28;20360;-85
2023/07/25 06:58:39;;;;;;;5.53;1.73;;;;;;;;;;10473769;28;20102;-85
2023/07/25 07:03:46;;;;;;;5.18;2.00;;;;;;;;;;10480499;28;20037;-85
2023/07/25 07:08:47;;;;;;;3.85;1.40;;;;;;;;;;10482615;28;20029;-85
2023/07/25 07:13:57;;;;;;;3.25;1.40;;;;;;;;;;10462887;28;20036;-85
2023/07/25 07:18:59;;;;;;;5.30;1.58;;;;;;;;;;10476131;28;20024;-85
2023/07/25 07:24:07;;;;;;;2.50;1.38;;;;;;;;;;10474213;28;20219;-85
2023/07/25 07:29:13;;;;;;;6.32;1.70;;;;;;;;;;10477613;28;20029;-85
2023/07/25 07:34:32;;;;;;;8.65;4.28;;;;;;;;;;10479280;28;20033;-85
2023/07/25 07:39:39;;;;;;;6.88;2.90;;;;;;;;;;10476087;28;20021;-85
2023/07/25 07:44:41;;;;;;;22.15;18.73;;;;;;;;;;10471028;28;20017;-83
2023/07/25 07:49:59;;;;;;;13.75;11.20;;;;;;;;;;10471266;28;20045;-83
2023/07/25 07:55:24;;;;;;;6.32;4.20;;;;;;;;;;10471062;28;20029;-83
2023/07/25 08:00:38;;;;;;;4.68;2.47;;;;;;;;;;10471540;28;20033;-84
2023/07/25 08:05:40;;;;;;;3.67;2.53;;;;;;;;;;10468562;28;20055;-82
2023/07/25 08:10:41;;;;;;;8.13;2.88;;;;;;;;;;10475872;28;20021;-84
2023/07/25 08:15:42;;;;;;;5.55;3.05;;;;;;;;;;10505475;28;20072;-82
2023/07/25 08:20:45;;;;;;;5.50;3.33;;;;;;;;;;10488123;28;20028;-83
2023/07/25 08:25:46;;;;;;;7.00;3.00;;;;;;;;;;10494753;28;20108;-81
2023/07/25 08:30:47;;;;;;;6.55;2.70;;;;;;;;;;10492132;28;20047;-82
2023/07/25 08:35:50;;;;;;;5.65;2.17;;;;;;;;;;10486432;28;20053;-81
2023/07/25 08:41:02;;;;;;;4.03;1.88;;;;;;;;;;10490385;28;20013;-83
2023/07/25 08:46:06;;;;;;;3.75;2.00;;;;;;;;;;10493632;28;20042;-84
2023/07/25 08:51:08;;;;;;;4.57;1.90;;;;;;;;;;10477952;28;20032;-84
2023/07/25 08:56:09;;;;;;;3.75;1.70;;;;;;;;;;10464760;28;20033;-83
2023/07/25 09:01:10;;;;;;;7.82;5.22;;;;;;;;;;10463580;28;20390;-85
2023/07/25 09:06:23;;;;;;;6.00;4.28;;;;;;;;;;10465959;28;20029;-85
2023/07/25 09:11:25;;;;;;;6.30;4.35;;;;;;;;;;10465351;28;20408;-85
2023/07/25 09:16:27;;;;;;;12.68;4.60;;;;;;;;;;10468880;28;20074;-85
2023/07/25 09:21:28;;;;;;;6.20;4.00;;;;;;;;;;10464352;28;20107;-85
2023/07/25 09:26:30;;;;;;;8.18;3.53;;;;;;;;;;10468012;28;20079;-85
2023/07/25 09:31:42;;;;;;;5.85;2.92;;;;;;;;;;10481324;28;20025;-83
2023/07/25 09:36:47;;;;;;;5.40;2.70;;;;;;;;;;10471930;28;20368;-85
2023/07/25 09:42:00;;;;;;;4.10;2.40;;;;;;;;;;10473020;28;20024;-85
2023/07/25 09:47:05;;;;;;;4.97;2.35;;;;;;;;;;10565533;28;20036;-85
2023/07/25 09:52:08;;;;;;;3.42;1.60;;;;;;;;;;10555144;28;20090;-84
2023/07/25 09:57:09;;;;;;;4.25;2.15;;;;;;;;;;10527942;28;20031;-82
2023/07/25 10:02:16;;;;;;;3.95;2.08;;;;;;;;;;10531189;28;20066;-84
2023/07/25 10:07:18;;;;;;;2.78;2.00;;;;;;;;;;10526962;28;20024;-85
2023/07/25 10:12:19;;;;;;;5.18;2.75;;;;;;;;;;10529476;28;20051;-85
2023/07/25 10:17:20;;;;;;;4.85;2.55;;;;;;;;;;10532874;28;20477;-84
2023/07/25 10:22:37;;;;;;;4.78;2.40;;;;;;;;;;10535535;28;20024;-84
2023/07/25 10:27:44;;;;;;;4.18;2.30;;;;;;;;;;10533700;28;20020;-83
2023/07/25 10:32:46;;;;;;;5.88;2.20;;;;;;;;;;10532464;28;20024;-83
2023/07/25 10:37:47;;;;;;;4.78;1.77;;;;;;;;;;10544549;28;20393;-83
2023/07/25 10:42:49;;;;;;;4.18;2.00;;;;;;;;;;10539992;28;20425;-84
2023/07/25 10:47:50;;;;;;;3.70;2.00;;;;;;;;;;10540373;28;20032;-84
2023/07/25 10:52:51;;;;;;;4.40;1.88;;;;;;;;;;10535939;28;20035;-85
2023/07/25 10:58:22;;;;;;;4.32;2.00;;;;;;;;;;10535196;28;20124;-85
2023/07/25 11:03:23;;;;;;;;;;;;;;;;;;10542854;28;20040;-83
2023/07/25 11:08:29;;;;;;;3.75;1.58;;;;;;;;;;10530843;28;19912;-82
2023/07/25 11:13:32;;;;;;;4.93;1.58;;;;;;;;;;10532738;28;20036;-83
2023/07/25 11:18:36;;;;;;;3.28;1.45;;;;;;;;;;10534852;28;20541;-84
2023/07/25 11:23:37;;;;;;;5.63;1.60;;;;;;;;;;10531286;28;20027;-84
2023/07/25 11:28:38;;;;;;;4.13;1.67;;;;;;;;;;10531575;28;20569;-84
2023/07/25 11:33:41;;;;;;;4.32;1.90;;;;;;;;;;10533776;28;20055;-83
2023/07/25 11:38:43;;;;;;;3.05;1.63;;;;;;;;;;10532030;28;20024;-84
2023/07/25 11:43:44;;;;;;;4.60;1.40;;;;;;;;;;10535371;28;20055;-83
2023/07/25 11:48:45;;;;;;;4.20;1.65;;;;;;;;;;10538317;28;20100;-84
2023/07/25 11:53:47;;;;;;;3.17;1.50;;;;;;;;;;10566470;28;20442;-86
2023/07/25 11:58:51;;;;;;;3.63;1.40;;;;;;;;;;10548057;23;20051;-85
2023/07/25 12:04:23;;;;;;;4.05;1.20;;;;;;;;;;10475482;28;20025;-84
2023/07/25 12:09:44;;;;;;;2.95;1.50;;;;;;;;;;10475261;28;20024;-85
2023/07/25 12:15:18;;;;;;;4.68;2.22;;;;;;;;;;10514356;28;20028;-84
2023/07/25 12:20:29;;;;;;;9.38;7.85;;;;;;;;;;10491798;28;20513;-82
2023/07/25 12:31:19;;;;;;;2.72;1.75;;;;;;;;;;10513124;28;20024;-83
2023/07/25 12:42:16;;;;;;;2.20;1.23;;;;;;;;;;10387480;28;19905;-83
2023/07/25 12:47:26;;;;;;;4.32;2.85;;;;;;;;;;10373454;28;20079;-83
2023/07/25 12:52:27;;;;;;;3.40;1.50;;;;;;;;;;10367066;28;20054;-85
2023/07/25 12:57:29;;;;;;;2.40;1.00;;;;;;;;;;10374624;28;20033;-85
2023/07/25 13:02:36;;;;;;;3.22;1.02;;;;;;;;;;10506811;28;20039;-86
2023/07/25 13:07:38;;;;;;;4.25;1.20;;;;;;;;;;10506341;28;20090;-85
2023/07/25 13:13:12;;;;;;;2.53;1.27;;;;;;;;;;10495285;28;20066;-86
2023/07/25 13:18:14;;;;;;;2.25;1.13;;;;;;;;;;10506154;28;20037;-86
2023/07/25 13:23:16;;;;;;;5.10;2.38;;;;;;;;;;10504664;28;20051;-86
2023/07/25 13:28:19;;;;;;;4.25;1.02;;;;;;;;;;10511308;28;20024;-85
2023/07/25 13:33:20;;;;;;;3.25;1.80;;;;;;;;;;10496011;28;20025;-85
2023/07/25 13:38:21;;;;;;;6.57;4.65;;;;;;;;;;10511306;28;20028;-85
2023/07/25 13:43:22;;;;;;;4.00;1.23;;;;;;;;;;10506695;28;20032;-85
2023/07/25 13:48:23;;;;;;;3.80;1.30;;;;;;;;;;10511435;28;20032;-84
2023/07/25 13:53:25;;;;;;;3.67;1.00;;;;;;;;;;10512691;28;20039;-85
2023/07/25 13:58:26;;;;;;;4.90;1.20;;;;;;;;;;10518684;28;20032;-84
2023/07/25 14:03:27;;;;;;;2.78;1.02;;;;;;;;;;10511264;28;20027;-84
2023/07/25 14:08:29;;;;;;;2.08;1.00;;;;;;;;;;10525195;28;20092;-85
2023/07/25 14:13:30;;;;;;;2.22;1.00;;;;;;;;;;10523543;28;20067;-83
2023/07/25 14:18:31;;;;;;;1.73;1.08;;;;;;;;;;10521467;28;20033;-84
2023/07/25 14:23:34;;;;;;;2.17;1.15;;;;;;;;;;10513024;28;20081;-84
2023/07/25 14:28:35;;;;;;;3.15;1.20;;;;;;;;;;10499001;28;20020;-84
2023/07/25 14:33:36;;;;;;;2.88;1.00;;;;;;;;;;10513056;28;20032;-84
2023/07/25 14:38:40;;;;;;;4.20;2.83;;;;;;;;;;10512677;28;20043;-84
2023/07/25 14:43:41;;;;;;;2.13;1.30;;;;;;;;;;10539882;28;20048;-83
2023/07/25 14:48:42;;;;;;;2.97;1.48;;;;;;;;;;10525174;28;20044;-83
2023/07/25 14:53:43;;;;;;;1.58;0.80;;;;;;;;;;10537720;28;20019;-83
2023/07/25 14:58:44;;;;;;;1.77;0.80;;;;;;;;;;10513529;28;20040;-84
2023/07/25 15:03:45;;;;;;;2.33;0.80;;;;;;;;;;10515426;28;20024;-84
2023/07/25 15:08:46;;;;;;;0.90;0.60;;;;;;;;;;10516859;28;20055;-83
2023/07/25 15:13:48;;;;;;;1.95;0.98;;;;;;;;;;10521829;28;20031;-84
2023/07/25 15:18:52;;;;;;;2.50;1.23;;;;;;;;;;10534705;28;20032;-83
2023/07/25 15:23:53;;;;;;;2.03;0.98;;;;;;;;;;10546321;28;20079;-83
2023/07/25 15:43:31;;;;;;;1.92;0.80;;;;;;;;;;10444664;28;20464;-83
2023/07/25 15:49:00;;;;;;;2.67;1.20;;;;;;;;;;10426073;28;20092;-83
2023/07/25 16:11:20;;;;;;;2.95;0.90;;;;;;;;;;10380513;28;20038;-85
2023/07/25 16:22:08;;;;;;;2.53;0.90;;;;;;;;;;10379649;28;20556;-85
2023/07/25 16:33:19;;;;;;;1.58;0.80;;;;;;;;;;10381564;28;20038;-84
2023/07/25 16:38:33;;;;;;;1.92;0.90;;;;;;;;;;10358470;28;20512;-85
2023/07/25 16:43:41;;;;;;;3.88;1.08;;;;;;;;;;10354643;28;20033;-83
2023/07/25 16:55:09;;;;;;;1.55;0.88;;;;;;;;;;10352260;28;20494;-82
2023/07/25 17:00:31;;;;;;;1.75;0.60;;;;;;;;;;10366802;28;20030;-82
2023/07/25 17:11:14;;;;;;;1.10;0.70;;;;;;;;;;10332072;28;20506;-86
2023/07/25 17:22:48;;;;;;;2.10;0.60;;;;;;;;;;10183381;29;20092;-86
2023/07/25 17:28:41;;;;;;;1.98;0.68;;;;;;;;;;10107283;29;20560;-86
2023/07/25 17:34:08;;;;;;;2.25;0.60;;;;;;;;;;10033558;29;20113;-86
2023/07/25 18:25:23;;;;;;;1.98;0.73;;;;;;;;;;10308075;28;20511;-86
2023/07/25 18:53:42;;;;;;;3.75;1.73;;;;;;;;;;10309591;28;20043;-85
